tititudorancea.com
Station Historical Data
Daily Summary for February 5, 2018 Units:  Metric    English   Both
« Previous Day
Next Day »
Daily Weekly Monthly Yearly Custom
  High: Low: Average:
Temperature: -17.8 °C 11.7 °C 21.4 °C
Dew Point: -17.8 °C 6.8 °C 10.2 °C
Humidity: Humidity % 20 % 56 %
Wind Speed: 0 km/h 0 km/h 4.5 km/h
Wind Gust: 0 km/h - -
Wind:- - SW
Pressure: 0 hPa 1013.4 hPa -
Precipitation: 0 mm    
Historical Graphs
 
 
Ararat weather Find more about Weather in Ararat, AU


 



 


Tabular Data for February 5, 2018
Time Temperature Dew Point Pressure Wind Wind Speed Wind Gust Humidity Rainfall Rate (Hourly)
-17.8 °C -17.8 °C 0 hPa Calm     Humidity % 0 mm
00:03 18.1 °C 11.8 °C 1018.5 hPa South 6.4 km/h 9.3 km/h 67 % 0 mm
00:08 18.1 °C 11.8 °C 1018.5 hPa South 5.3 km/h 9.3 km/h 67 % 0 mm
00:13 18.1 °C 11.8 °C 1018.2 hPa South 7.6 km/h 11.1 km/h 67 % 0 mm
00:18 18 °C 11.8 °C 1018.5 hPa South 8.4 km/h 9.3 km/h 67 % 0 mm
00:23 17.9 °C 11.7 °C 1018.5 hPa South 5.5 km/h 9.3 km/h 67 % 0 mm
00:28 17.9 °C 11.9 °C 1018.5 hPa South 6 km/h 9.3 km/h 68 % 0 mm
00:33 17.9 °C 11.9 °C 1018.2 hPa South 6.6 km/h 7.4 km/h 68 % 0 mm
00:38 17.8 °C 11.8 °C 1018.2 hPa South 4 km/h 5.6 km/h 68 % 0 mm
00:43 17.7 °C 11.7 °C 1018.2 hPa North 6.8 km/h 8 km/h 68 % 0 mm
00:48 17.6 °C 11.8 °C 1018.2 hPa South 4.8 km/h 7.4 km/h 69 % 0 mm
00:53 17.4 °C 11.7 °C 1018.2 hPa South 5.5 km/h 7.4 km/h 69 % 0 mm
00:58 17.3 °C 11.8 °C 1018.2 hPa South 6.1 km/h 7.4 km/h 70 % 0 mm
01:03 17.2 °C 11.7 °C 1018.2 hPa South 7.6 km/h 9.3 km/h 70 % 0 mm
01:08 17.2 °C 11.7 °C 1018.2 hPa South 6.3 km/h 9.3 km/h 70 % 0 mm
01:13 17.1 °C 11.6 °C 1018.2 hPa South 9.3 km/h 14.8 km/h 70 % 0 mm
01:18 17.2 °C 11.4 °C 1018.2 hPa South 8.9 km/h 9.7 km/h 69 % 0 mm
01:23 17.2 °C 11.7 °C 1018.2 hPa South 10.1 km/h 13 km/h 70 % 0 mm
01:28 17 °C 11.7 °C 1018.2 hPa South 7.7 km/h 11.1 km/h 71 % 0 mm
01:33 16.8 °C 11.9 °C 1017.8 hPa North 6.9 km/h 9.3 km/h 73 % 0 mm
01:38 16.7 °C 12 °C 1018.2 hPa South 4.5 km/h 7.4 km/h 74 % 0 mm
01:43 16.4 °C 12 °C 1017.8 hPa South 8.4 km/h 11.1 km/h 75 % 0 mm
01:48 16.3 °C 12.1 °C 1017.8 hPa South 10 km/h 10 km/h 76 % 0 mm
01:53 16.2 °C 12.3 °C 1017.8 hPa SSW 6.4 km/h 11.3 km/h 78 % 0 mm
01:58 16.1 °C 12.4 °C 1017.8 hPa North 5.3 km/h 13 km/h 79 % 0 mm
02:04 16 °C 12.3 °C 1017.8 hPa North 6.8 km/h 11.1 km/h 79 % 0 mm
02:09 15.9 °C 12.3 °C 1017.8 hPa North 5.6 km/h 6.4 km/h 79 % 0 mm
02:14 15.9 °C 12.3 °C 1017.8 hPa South 3.2 km/h 5.6 km/h 79 % 0 mm
02:19 15.9 °C 12.2 °C 1017.5 hPa South 0.8 km/h 3.7 km/h 79 % 0 mm
02:24 15.8 °C 12.2 °C 1017.8 hPa Calm     79 % 0 mm
02:29 15.7 °C 12.1 °C 1017.8 hPa Calm     79 % 0 mm
02:34 15.6 °C 12.2 °C 1017.8 hPa South 2.6 km/h 5.6 km/h 80 % 0 mm
02:39 15.5 °C 12.1 °C 1017.5 hPa North 1 km/h 3.7 km/h 80 % 0 mm
02:44 15.5 °C 12.3 °C 1017.5 hPa North 4 km/h 5.6 km/h 81 % 0 mm
02:49 15.5 °C 12.3 °C 1017.5 hPa South 5.1 km/h 7.4 km/h 81 % 0 mm
02:54 15.5 °C 12.3 °C 1017.5 hPa SSW 2.6 km/h 7.4 km/h 81 % 0 mm
02:59 15.5 °C 12.3 °C 1017.5 hPa North 4.2 km/h 4.8 km/h 81 % 0 mm
03:04 15.4 °C 12.2 °C 1017.5 hPa North 7.1 km/h 11.1 km/h 81 % 0 mm
03:09 15.4 °C 12.2 °C 1017.5 hPa North 4.7 km/h 9.3 km/h 81 % 0 mm
03:14 15.4 °C 12.3 °C 1017.5 hPa South 6.6 km/h 11.1 km/h 82 % 0 mm
03:19 15.4 °C 12.3 °C 1017.5 hPa South 6.4 km/h 9.3 km/h 82 % 0 mm
03:24 15.3 °C 12.1 °C 1017.5 hPa South 3.2 km/h 5.6 km/h 81 % 0 mm
03:29 15.2 °C 12.2 °C 1017.5 hPa South 4.5 km/h 6.4 km/h 82 % 0 mm
03:34 15.1 °C 12.1 °C 1017.5 hPa South 7.1 km/h 9.3 km/h 82 % 0 mm
03:39 15.1 °C 12 °C 1017.5 hPa North 4 km/h 6.4 km/h 82 % 0 mm
03:44 14.9 °C 11.9 °C 1017.5 hPa South 1.3 km/h 3.7 km/h 82 % 0 mm
03:49 14.9 °C 11.8 °C 1017.5 hPa Calm     82 % 0 mm
03:54 14.8 °C 11.9 °C 1017.5 hPa Calm     83 % 0 mm
03:59 14.7 °C 11.6 °C 1017.5 hPa Calm     82 % 0 mm
04:04 14.5 °C 11.7 °C 1017.2 hPa Calm     83 % 0 mm
04:09 14.3 °C 11.5 °C 1017.5 hPa Calm     83 % 0 mm
04:14 14.2 °C 11.4 °C 1017.2 hPa Calm     83 % 0 mm
04:19 14.1 °C 11.4 °C 1017.2 hPa Calm     84 % 0 mm
04:24 13.9 °C 11.2 °C 1017.5 hPa Calm     84 % 0 mm
04:29 13.7 °C 11.1 °C 1017.5 hPa Calm     84 % 0 mm
04:34 13.6 °C 11.1 °C 1017.2 hPa Calm     85 % 0 mm
04:39 13.4 °C 10.9 °C 1017.2 hPa North 1.8 km/h 4.8 km/h 85 % 0 mm
04:44 13.3 °C 11 °C 1017.2 hPa Calm     86 % 0 mm
04:49 13.3 °C 11 °C 1017.2 hPa Calm     86 % 0 mm
04:54 13.3 °C 11.2 °C 1017.2 hPa South 2.3 km/h 3.7 km/h 87 % 0 mm
04:59 13.2 °C 11.1 °C 1017.2 hPa Calm     87 % 0 mm
05:04 13.2 °C 11.1 °C 1017.2 hPa Calm     87 % 0 mm
05:09 13.1 °C 11.2 °C 1017.2 hPa Calm   1.9 km/h 88 % 0 mm
05:14 13.1 °C 11.2 °C 1017.2 hPa Calm     88 % 0 mm
05:19 13 °C 11.1 °C 1017.2 hPa Calm     88 % 0 mm
05:24 13 °C 11.2 °C 1017.2 hPa South 2.6 km/h 5.6 km/h 89 % 0 mm
05:29 13 °C 11.2 °C 1017.2 hPa Calm   1.9 km/h 89 % 0 mm
05:34 13 °C 11.2 °C 1017.2 hPa Calm     89 % 0 mm
05:39 13.1 °C 11.4 °C 1017.2 hPa Calm     90 % 0 mm
05:44 13.1 °C 11.4 °C 1017.2 hPa Calm     90 % 0 mm
05:49 12.8 °C 11 °C 1017.2 hPa Calm     89 % 0 mm
05:54 12.7 °C 11.1 °C 1017.2 hPa Calm     90 % 0 mm
05:59 12.6 °C 10.9 °C 1017.2 hPa Calm     90 % 0 mm
06:04 12.4 °C 10.8 °C 1017.2 hPa Calm     90 % 0 mm
06:09 12.5 °C 11.1 °C 1017.5 hPa Calm     91 % 0 mm
06:14 12.6 °C 11.1 °C 1017.5 hPa Calm     91 % 0 mm
06:19 12.4 °C 10.8 °C 1017.5 hPa Calm     90 % 0 mm
06:24 12.2 °C 10.6 °C 1017.5 hPa Calm     90 % 0 mm
06:29 12.1 °C 10.5 °C 1017.5 hPa Calm     90 % 0 mm
06:34 12 °C 10.6 °C 1017.5 hPa Calm     91 % 0 mm
06:39 12 °C 10.6 °C 1017.5 hPa Calm     91 % 0 mm
06:44 11.9 °C 10.4 °C 1017.5 hPa Calm     91 % 0 mm
06:49 11.8 °C 10.3 °C 1017.5 hPa Calm     91 % 0 mm
06:54 11.8 °C 10.3 °C 1017.8 hPa Calm     91 % 0 mm
06:59 11.7 °C 10.2 °C 1017.8 hPa Calm     91 % 0 mm
07:04 11.7 °C 10.4 °C 1017.8 hPa North 0.2 km/h 1.6 km/h 92 % 0 mm
07:09 11.7 °C 10.4 °C 1017.5 hPa Calm     92 % 0 mm
07:14 11.8 °C 10.5 °C 1017.8 hPa Calm     92 % 0 mm
07:19 11.8 °C 10.6 °C 1017.8 hPa Calm     92 % 0 mm
07:24 11.9 °C 10.6 °C 1017.8 hPa Calm     92 % 0 mm
07:29 12 °C 10.7 °C 1017.8 hPa South 0.3 km/h 1.9 km/h 92 % 0 mm
07:34 12.1 °C 11 °C 1017.8 hPa Calm     93 % 0 mm
07:39 12.3 °C 11.2 °C 1017.8 hPa Calm     93 % 0 mm
07:44 12.5 °C 11.4 °C 1017.8 hPa Calm     93 % 0 mm
07:49 12.6 °C 11.4 °C 1017.8 hPa Calm     93 % 0 mm
07:54 12.6 °C 11.5 °C 1017.8 hPa Calm     93 % 0 mm
07:59 12.7 °C 11.4 °C 1018.2 hPa North 1.8 km/h 3.7 km/h 92 % 0 mm
08:04 12.9 °C 11.8 °C 1018.2 hPa SSW 1.1 km/h 3.7 km/h 93 % 0 mm
08:09 13.3 °C 12.2 °C 1018.2 hPa Calm     93 % 0 mm
08:14 13.8 °C 12.5 °C 1018.2 hPa North 1.6 km/h 3.7 km/h 92 % 0 mm
08:19 14.1 °C 12.6 °C 1018.2 hPa Calm     91 % 0 mm
08:24 14.6 °C 13.1 °C 1018.2 hPa Calm     91 % 0 mm
08:29 15.1 °C 13.3 °C 1018.2 hPa South 1.1 km/h 3.7 km/h 89 % 0 mm
08:34 15.4 °C 13.2 °C 1018.2 hPa South 1.4 km/h 3.7 km/h 87 % 0 mm
08:39 15.8 °C 13.4 °C 1018.2 hPa South 0.2 km/h 3.7 km/h 86 % 0 mm
08:44 16.2 °C 13.3 °C 1018.2 hPa South 5.6 km/h 5.6 km/h 83 % 0 mm
08:49 16.6 °C 13.3 °C 1018.2 hPa South 1 km/h 1.9 km/h 81 % 0 mm
08:54 16.8 °C 13.3 °C 1018.2 hPa Calm   1.9 km/h 80 % 0 mm
08:59 17.2 °C 12.9 °C 1018.2 hPa Calm     76 % 0 mm
09:04 17.6 °C 13.1 °C 1018.2 hPa Calm     75 % 0 mm
09:09 18.2 °C 13.7 °C 1018.2 hPa South 2.3 km/h 3.7 km/h 75 % 0 mm
09:14 18.9 °C 13.8 °C 1018.2 hPa South 0.6 km/h 3.2 km/h 72 % 0 mm
09:19 19.7 °C 13.6 °C 1018.2 hPa Calm   1.9 km/h 68 % 0 mm
09:24 20.2 °C 13.6 °C 1018.2 hPa Calm   1.6 km/h 66 % 0 mm
09:29 20.6 °C 13.8 °C 1018.2 hPa South 0.2 km/h 1.9 km/h 65 % 0 mm
09:34 21.2 °C 13.7 °C 1018.2 hPa South 1.3 km/h 3.7 km/h 62 % 0 mm
09:39 21.7 °C 13.6 °C 1018.2 hPa Calm     60 % 0 mm
09:44 22.1 °C 12.9 °C 1018.2 hPa South 1.4 km/h 1.9 km/h 56 % 0 mm
09:49 22.2 °C 12.7 °C 1018.2 hPa Calm   1.9 km/h 55 % 0 mm
09:54 22.8 °C 12.4 °C 1017.8 hPa South 1.9 km/h 5.6 km/h 52 % 0 mm
09:59 23.2 °C 12.4 °C 1017.8 hPa Calm   1.9 km/h 51 % 0 mm
10:04 23.7 °C 12.6 °C 1017.8 hPa South 2.4 km/h 5.6 km/h 50 % 0 mm
10:09 24.3 °C 12.2 °C 1017.8 hPa South 1 km/h 1.9 km/h 47 % 0 mm
10:14 24.8 °C 12.4 °C 1017.8 hPa South 1.4 km/h 3.2 km/h 46 % 0 mm
10:19 25.3 °C 11.4 °C 1017.8 hPa South 3.9 km/h 5.6 km/h 42 % 0 mm
10:24 25.6 °C 11.7 °C 1017.8 hPa Calm     42 % 0 mm
10:29 26.1 °C 11.4 °C 1017.8 hPa South 1.9 km/h 5.6 km/h 40 % 0 mm
10:34 26.3 °C 11.3 °C 1017.8 hPa South 2.4 km/h 5.6 km/h 39 % 0 mm
10:39 26.8 °C 10.9 °C 1017.8 hPa South 2.4 km/h 3.7 km/h 37 % 0 mm
10:44 27.6 °C 10.8 °C 1017.8 hPa South 5.5 km/h 7.4 km/h 35 % 0 mm
10:49 27.5 °C 10.2 °C 1017.8 hPa South 2.3 km/h 5.6 km/h 34 % 0 mm
10:54 27.7 °C 10.4 °C 1017.8 hPa South 1.3 km/h 7.4 km/h 34 % 0 mm
10:59 28.1 °C 9.8 °C 1017.8 hPa Calm   7.4 km/h 32 % 0 mm
11:05 28.3 °C 10 °C 1017.8 hPa South 0.6 km/h 3.2 km/h 32 % 0 mm
11:10 28.6 °C 9.3 °C 1017.5 hPa NW 9.2 km/h 16.7 km/h 30 % 0 mm
11:15 28.7 °C 8.9 °C 1017.5 hPa North 11.6 km/h 13 km/h 29 % 0 mm
11:20 28.7 °C 8.9 °C 1017.5 hPa North 8.5 km/h 13 km/h 29 % 0 mm
11:25 29 °C 9.2 °C 1017.5 hPa NNW 5.3 km/h 5.6 km/h 29 % 0 mm
11:30 29 °C 8.7 °C 1017.5 hPa NNW 8.4 km/h 11.1 km/h 28 % 0 mm
11:35 29.1 °C 8.7 °C 1017.5 hPa NNW 6 km/h 9.3 km/h 28 % 0 mm
11:40 29.5 °C 8.6 °C 1017.2 hPa NNW 5 km/h 11.3 km/h 27 % 0 mm
11:45 29.4 °C 8.5 °C 1017.2 hPa North 7.6 km/h 9.3 km/h 27 % 0 mm
11:50 29.4 °C 8.5 °C 1017.2 hPa NNW 2.9 km/h 5.6 km/h 27 % 0 mm
11:55 29.9 °C 8.9 °C 1017.2 hPa NW 5.6 km/h 9.3 km/h 27 % 0 mm
12:00 30 °C 8.4 °C 1017.2 hPa North 9 km/h 11.1 km/h 26 % 0 mm
12:05 29.9 °C 8.3 °C 1016.8 hPa NW 6.4 km/h 7.4 km/h 26 % 0 mm
12:10 30 °C 8.4 °C 1016.8 hPa North 8.9 km/h 13 km/h 26 % 0 mm
12:15 30.4 °C 8.8 °C 1016.8 hPa NW 5 km/h 7.4 km/h 26 % 0 mm
12:20 30.7 °C 8.4 °C 1016.8 hPa NNW 7.7 km/h 9.3 km/h 25 % 0 mm
12:25 30.7 °C 8.4 °C 1016.8 hPa North 4 km/h 5.6 km/h 25 % 0 mm
12:30 30.8 °C 8.5 °C 1016.5 hPa North 7.2 km/h 9.3 km/h 25 % 0 mm
12:35 30.8 °C 8.5 °C 1016.5 hPa WNW 6.6 km/h 11.1 km/h 25 % 0 mm
12:40 31.1 °C 8.8 °C 1016.5 hPa WNW 8 km/h 11.1 km/h 25 % 0 mm
12:45 31.2 °C 7.6 °C 1016.5 hPa West 6 km/h 7.4 km/h 23 % 0 mm
12:50 31.2 °C 8.2 °C 1016.5 hPa West 1.9 km/h 5.6 km/h 24 % 0 mm
12:55 31.6 °C 8.6 °C 1016.1 hPa NW 7.9 km/h 17.7 km/h 24 % 0 mm
13:00 31.6 °C 8.6 °C 1016.1 hPa West 12.1 km/h 20.4 km/h 24 % 0 mm
13:05 31.7 °C 8.6 °C 1016.1 hPa WNW 1.9 km/h 5.6 km/h 24 % 0 mm
13:10 32.1 °C 8.4 °C 1016.1 hPa NE 2.7 km/h 5.6 km/h 23 % 0 mm
13:15 32.2 °C 8.4 °C 1016.1 hPa NNW 10.3 km/h 14.8 km/h 23 % 0 mm
13:20 31.8 °C 8.1 °C 1015.8 hPa WNW 2.7 km/h 7.4 km/h 23 % 0 mm
13:25 32 °C 8.3 °C 1015.8 hPa WNW 4.5 km/h 7.4 km/h 23 % 0 mm
13:30 32 °C 8.3 °C 1015.8 hPa WNW 5.8 km/h 7.4 km/h 23 % 0 mm
13:35 32.4 °C 8.7 °C 1015.8 hPa West 10 km/h 13 km/h 23 % 0 mm
13:40 32.2 °C 7.8 °C 1015.8 hPa North 8.5 km/h 11.1 km/h 22 % 0 mm
13:45 32.2 °C 8.4 °C 1015.5 hPa West 11.3 km/h 16.7 km/h 23 % 0 mm
13:50 32.3 °C 7.9 °C 1015.5 hPa SW 14.2 km/h 18.5 km/h 22 % 0 mm
13:55 32 °C 8.3 °C 1015.5 hPa West 5.6 km/h 7.4 km/h 23 % 0 mm
14:00 32.2 °C 8.4 °C 1015.5 hPa West 8.4 km/h 12.9 km/h 23 % 0 mm
14:05 32.1 °C 7.7 °C 1015.5 hPa WSW 11.9 km/h 16.1 km/h 22 % 0 mm
14:10 32.3 °C 7.8 °C 1015.1 hPa West 9.8 km/h 14.8 km/h 22 % 0 mm
14:15 31.9 °C 7.5 °C 1015.1 hPa North 5.5 km/h 9.3 km/h 22 % 0 mm
14:20 31.9 °C 7.5 °C 1015.1 hPa WSW 14.6 km/h 20.9 km/h 22 % 0 mm
14:25 32 °C 7.6 °C 1014.8 hPa West 11.9 km/h 18.5 km/h 22 % 0 mm
14:30 32.8 °C 7.6 °C 1014.8 hPa NW 12.6 km/h 16.7 km/h 21 % 0 mm
14:35 32.9 °C 7.7 °C 1014.8 hPa North 8 km/h 11.1 km/h 21 % 0 mm
14:40 32.7 °C 7.5 °C 1014.8 hPa NW 10.5 km/h 14.8 km/h 21 % 0 mm
14:45 32.4 °C 8 °C 1014.8 hPa NW 1 km/h 5.6 km/h 22 % 0 mm
14:50 32.7 °C 7.6 °C 1014.4 hPa NW 0.6 km/h 3.7 km/h 21 % 0 mm
14:55 32.8 °C 7.6 °C 1014.4 hPa NW 7.6 km/h 8 km/h 21 % 0 mm
15:00 32 °C 8.3 °C 1014.4 hPa NW 5 km/h 7.4 km/h 23 % 0 mm
15:05 31.9 °C 7.6 °C 1014.4 hPa NW 5.5 km/h 7.4 km/h 22 % 0 mm
15:10 32.2 °C 7.8 °C 1014.1 hPa North 3.5 km/h 5.6 km/h 22 % 0 mm
15:15 32.7 °C 7.6 °C 1014.1 hPa NW 6.6 km/h 7.4 km/h 21 % 0 mm
15:20 32.8 °C 7.6 °C 1014.1 hPa NW 2.6 km/h 5.6 km/h 21 % 0 mm
15:25 32.8 °C 7.6 °C 1014.1 hPa North 1.4 km/h 5.6 km/h 21 % 0 mm
15:30 32.8 °C 7.6 °C 1013.8 hPa SSW 5.3 km/h 5.6 km/h 21 % 0 mm
15:35 32.7 °C 8.2 °C 1013.8 hPa South 5.3 km/h 11.1 km/h 22 % 0 mm
15:40 33.1 °C 7.8 °C 1013.8 hPa South 2.6 km/h 5.6 km/h 21 % 0 mm
15:45 33.7 °C 7.7 °C 1013.8 hPa South 4.8 km/h 7.4 km/h 20 % 0 mm
15:50 33.9 °C 7.8 °C 1013.4 hPa South 0.3 km/h 5.6 km/h 20 % 0 mm
15:55 33.9 °C 7.8 °C 1013.4 hPa SSE 8 km/h 9.3 km/h 20 % 0 mm
16:00 33.6 °C 7.6 °C 1013.4 hPa SSE 5.5 km/h 9.7 km/h 20 % 0 mm
16:03 33.6 °C 7.5 °C 1013.4 hPa South 10.1 km/h 27.8 km/h 20 % 0 mm
16:05 33.6 °C 7.5 °C 1013.4 hPa South 10.1 km/h 27.8 km/h 20 % 0 mm
16:10 33.6 °C 7.5 °C 1013.4 hPa South 10.1 km/h 27.8 km/h 20 % 0 mm
19:40 33.6 °C 7.5 °C 1013.4 hPa South 10.1 km/h 27.8 km/h 20 % 0 mm
20:23 28.5 °C 7.1 °C 1013.4 hPa Calm   8 km/h 26 % 0 mm
20:28 28.3 °C 7 °C 1013.4 hPa SSE 10.9 km/h 20.4 km/h 26 % 0 mm
20:34 28.1 °C 7.3 °C 1013.4 hPa SSE 10.8 km/h 18.5 km/h 27 % 0 mm
20:39 27.9 °C 7.2 °C 1013.4 hPa SSE 10.3 km/h 18.5 km/h 27 % 0 mm
20:44 27.7 °C 7.6 °C 1013.4 hPa SSE 8.5 km/h 11.1 km/h 28 % 0 mm
20:49 27.5 °C 7.9 °C 1013.4 hPa SSE 9 km/h 18.5 km/h 29 % 0 mm
20:54 27.4 °C 7.8 °C 1013.4 hPa South 11.7 km/h 14.8 km/h 29 % 0 mm
20:59 27.1 °C 8.5 °C 1013.8 hPa South 13.5 km/h 14.8 km/h 31 % 0 mm
21:04 26.8 °C 10.1 °C 1013.8 hPa South 14.6 km/h 14.6 km/h 35 % 0 mm
21:09 26 °C 10.6 °C 1014.1 hPa South 13 km/h 18.5 km/h 38 % 0 mm
21:14 25.1 °C 10.6 °C 1014.1 hPa SE 11.6 km/h 19.3 km/h 40 % 0 mm
21:19 24.4 °C 10.3 °C 1014.1 hPa SSE 7.2 km/h 14.8 km/h 41 % 0 mm
21:24 23.9 °C 10.2 °C 1014.1 hPa SSE 10.9 km/h 20.4 km/h 42 % 0 mm
21:29 23.4 °C 10.2 °C 1014.1 hPa SE 5.1 km/h 11.1 km/h 43 % 0 mm
21:34 23.2 °C 9.9 °C 1014.1 hPa SSE 8.4 km/h 16.1 km/h 43 % 0 mm
21:39 22.9 °C 10.1 °C 1014.4 hPa SSE 11.4 km/h 16.7 km/h 44 % 0 mm
21:44 22.8 °C 10.2 °C 1014.4 hPa SSE 10 km/h 14.8 km/h 45 % 0 mm
21:49 22.6 °C 10.1 °C 1014.4 hPa SSE 5.3 km/h 9.7 km/h 45 % 0 mm
21:54 22.5 °C 10.3 °C 1014.4 hPa SSE 7.4 km/h 13 km/h 46 % 0 mm
21:59 22.5 °C 9.9 °C 1014.8 hPa SSE 8.7 km/h 13 km/h 45 % 0 mm
22:04 22.6 °C 10 °C 1014.8 hPa SSE 10 km/h 13 km/h 45 % 0 mm
22:09 22.6 °C 10 °C 1014.8 hPa South 9.8 km/h 14.8 km/h 45 % 0 mm
22:17 22.4 °C 10.2 °C 1015.1 hPa South 14.8 km/h 14.8 km/h 46 % 0 mm
22:22 22.3 °C 10.2 °C 1015.1 hPa South 9.5 km/h 11.3 km/h 46 % 0 mm
22:27 22.2 °C 10.1 °C 1015.1 hPa South 9.5 km/h 14.8 km/h 46 % 0 mm
22:32 22.2 °C 10 °C 1015.1 hPa South 8.7 km/h 14.8 km/h 46 % 0 mm
22:37 22.1 °C 10.3 °C 1015.1 hPa South 6.6 km/h 14.8 km/h 47 % 0 mm
22:42 22 °C 10.2 °C 1015.1 hPa South 5.6 km/h 9.7 km/h 47 % 0 mm
22:47 21.8 °C 10.3 °C 1015.1 hPa South 10 km/h 14.8 km/h 48 % 0 mm
22:52 21.7 °C 9.9 °C 1015.1 hPa South 5.3 km/h 9.3 km/h 47 % 0 mm
22:57 21.6 °C 9.5 °C 1015.1 hPa South 6.1 km/h 9.3 km/h 46 % 0 mm
23:02 21.5 °C 9.1 °C 1015.5 hPa South 6.1 km/h 13 km/h 45 % 0 mm
23:07 21.4 °C 8.6 °C 1015.1 hPa South 8.9 km/h 13 km/h 44 % 0 mm
23:12 21.3 °C 8.2 °C 1015.1 hPa South 5 km/h 8 km/h 43 % 0 mm
23:17 21.1 °C 7.7 °C 1015.1 hPa South 6 km/h 9.3 km/h 42 % 0 mm
23:22 20.9 °C 7.6 °C 1015.1 hPa South 3.4 km/h 6.4 km/h 42 % 0 mm
23:27 20.8 °C 7.1 °C 1015.1 hPa South 3.7 km/h 7.4 km/h 41 % 0 mm
23:32 20.7 °C 6.9 °C 1015.1 hPa South 4 km/h 11.1 km/h 41 % 0 mm
23:37 20.5 °C 7.2 °C 1015.1 hPa South 8 km/h 11.1 km/h 42 % 0 mm
23:42 20.4 °C 7.1 °C 1015.1 hPa South 8.7 km/h 11.1 km/h 42 % 0 mm
23:47 20.2 °C 6.9 °C 1015.1 hPa South 5.1 km/h 9.3 km/h 42 % 0 mm
23:50 20.2 °C 6.8 °C 1015.1 hPa South 7.4 km/h 9.3 km/h 42 % 0 mm
23:55 20 °C 7.1 °C 1015.1 hPa South 8.9 km/h 13 km/h 43 % 0 mm
Ararat Weather
Compliments of Weather Underground - 2.25 mb
Click here to send mail.


ABOUT

Live weather data from Ararat, Victoria, Australia, 3377
Data uploaded from Cumulus every 5 minutes to Weather Underground.
This site then downloads the raw data for formatting and display.
Metric and imperial data can be displayed. Graphs and historical data available.
Includes Sun and Moon times and rain image live from BOM.

Check out Ararat Weather on Facebook, Twitter and Google +

Help support ongoing costs by checking out the ads





Follow @AraratWeather